createdAt,value
2023-03-03T00:02:24.386Z,106.97
2023-03-03T00:05:00.417Z,105.77
2023-03-03T00:07:36.519Z,103.37
2023-03-03T00:10:15.544Z,105.37
2023-03-03T00:12:54.810Z,104.37
2023-03-03T00:15:32.775Z,102.50
2023-03-03T00:18:17.317Z,101.60
2023-03-03T00:20:58.901Z,104.07
2023-03-03T00:23:42.682Z,101.90
2023-03-03T00:26:27.590Z,104.57
2023-03-03T00:29:03.635Z,103.73
2023-03-03T00:31:41.632Z,103.13
2023-03-03T00:34:29.980Z,103.87
2023-03-03T00:37:06.544Z,103.23
2023-03-03T00:39:44.104Z,103.27
2023-03-03T00:42:25.901Z,101.27
2023-03-03T00:45:04.983Z,100.47
2023-03-03T00:47:43.966Z,101.73
2023-03-03T00:50:39.672Z,101.27
2023-03-03T00:53:21.403Z,100.13
2023-03-03T00:56:03.952Z,101.90
2023-03-03T00:58:43.161Z,101.83
2023-03-03T01:01:23.622Z,97.83
2023-03-03T01:04:03.386Z,102.87
2023-03-03T01:06:40.267Z,100.63
2023-03-03T01:09:16.740Z,99.97
2023-03-03T01:11:56.726Z,102.87
2023-03-03T01:14:38.680Z,102.47
2023-03-03T01:17:14.854Z,101.10
2023-03-03T01:19:54.736Z,103.03
2023-03-03T01:22:31.071Z,101.57
2023-03-03T01:25:08.898Z,101.70
2023-03-03T01:27:46.565Z,104.37
2023-03-03T01:30:28.200Z,105.20
2023-03-03T01:33:04.499Z,103.07
2023-03-03T01:35:48.647Z,105.37
2023-03-03T01:38:25.228Z,105.33
2023-03-03T01:41:07.047Z,103.57
2023-03-03T01:43:51.174Z,104.17
2023-03-03T01:46:46.218Z,106.30
2023-03-03T01:49:24.731Z,106.77
2023-03-03T01:52:03.486Z,109.43
2023-03-03T01:54:46.696Z,106.67
2023-03-03T01:57:26.824Z,107.77
2023-03-03T02:00:05.137Z,111.50
2023-03-03T02:02:52.987Z,110.70
2023-03-03T02:05:29.826Z,112.77
2023-03-03T02:08:07.070Z,109.57
2023-03-03T02:10:47.052Z,112.87
2023-03-03T02:13:23.184Z,114.73
2023-03-03T02:16:00.954Z,114.23
2023-03-03T02:18:39.600Z,116.33
2023-03-03T02:21:19.925Z,117.23
2023-03-03T02:24:04.068Z,116.10
2023-03-03T02:26:49.110Z,114.67
2023-03-03T02:29:26.993Z,113.13
2023-03-03T02:32:03.543Z,115.43
2023-03-03T02:34:52.794Z,113.33
2023-03-03T02:37:29.702Z,119.93
2023-03-03T02:40:10.788Z,114.77
2023-03-03T02:42:50.593Z,117.20
2023-03-03T02:45:28.227Z,115.33
2023-03-03T02:48:06.681Z,113.80
2023-03-03T02:50:43.023Z,120.87
2023-03-03T02:53:20.646Z,119.43
2023-03-03T02:55:56.862Z,116.40
2023-03-03T02:58:35.737Z,118.30
2023-03-03T03:01:13.219Z,114.43
2023-03-03T03:03:54.731Z,118.00
2023-03-03T03:06:32.586Z,116.43
2023-03-03T03:09:12.213Z,117.10
2023-03-03T03:11:48.674Z,114.50
2023-03-03T03:14:29.981Z,112.90
2023-03-03T03:17:06.557Z,116.87
2023-03-03T03:19:47.137Z,114.87
2023-03-03T03:22:23.235Z,112.53
2023-03-03T03:25:00.323Z,114.67
2023-03-03T03:27:41.488Z,115.57
2023-03-03T03:30:23.868Z,113.83
2023-03-03T03:33:00.128Z,116.83
2023-03-03T03:35:36.869Z,111.10
2023-03-03T03:38:14.062Z,110.13
2023-03-03T03:40:51.616Z,111.53
2023-03-03T03:43:28.395Z,111.57
2023-03-03T03:46:07.695Z,108.77
2023-03-03T03:48:45.646Z,110.83
2023-03-03T03:51:24.154Z,111.90
2023-03-03T03:54:00.158Z,112.00
2023-03-03T03:56:43.698Z,110.23
2023-03-03T03:59:22.002Z,109.00
2023-03-03T04:02:05.636Z,106.57
2023-03-03T04:04:43.227Z,112.47
2023-03-03T04:07:25.669Z,111.10
2023-03-03T04:10:04.318Z,106.13
2023-03-03T04:12:44.572Z,106.07
2023-03-03T04:15:27.478Z,104.90
2023-03-03T04:18:12.033Z,103.73
2023-03-03T04:20:49.894Z,106.07
2023-03-03T04:23:32.084Z,100.33
2023-03-03T04:26:10.498Z,102.10
2023-03-03T04:28:53.131Z,96.97
2023-03-03T04:31:42.852Z,95.90
2023-03-03T04:34:33.920Z,89.70
2023-03-03T04:37:17.322Z,88.30
2023-03-03T04:39:56.890Z,94.17
2023-03-03T04:42:40.873Z,89.87
2023-03-03T04:45:20.290Z,98.17
2023-03-03T04:48:02.461Z,94.40
2023-03-03T04:50:49.557Z,89.40
2023-03-03T04:53:29.068Z,93.50
2023-03-03T04:56:08.986Z,91.27
2023-03-03T04:58:48.185Z,88.63
2023-03-03T05:01:25.049Z,86.03
2023-03-03T05:04:04.807Z,79.53
2023-03-03T05:06:50.905Z,81.20
2023-03-03T05:09:27.000Z,82.60
2023-03-03T05:12:02.968Z,72.73
2023-03-03T05:14:45.062Z,71.73
2023-03-03T05:17:23.354Z,62.63
2023-03-03T05:19:59.610Z,65.00
2023-03-03T05:22:40.417Z,60.80
2023-03-03T05:25:19.870Z,56.07
2023-03-03T05:27:59.405Z,62.87
2023-03-03T05:30:35.657Z,59.77
2023-03-03T05:33:12.047Z,68.60
2023-03-03T05:35:51.567Z,67.83
2023-03-03T05:38:30.759Z,65.50
2023-03-03T05:41:07.144Z,62.67
2023-03-03T05:43:46.753Z,67.23
2023-03-03T05:46:23.634Z,68.70
2023-03-03T05:49:00.740Z,68.50
2023-03-03T05:51:40.633Z,68.97
2023-03-03T05:54:19.361Z,69.93
2023-03-03T05:56:55.823Z,65.67
2023-03-03T05:59:35.068Z,67.63
2023-03-03T06:02:11.558Z,66.70
2023-03-03T06:05:10.558Z,67.80
2023-03-03T06:07:47.058Z,64.83
2023-03-03T06:10:26.318Z,61.50
2023-03-03T06:13:06.896Z,63.63
2023-03-03T06:15:46.908Z,63.93
2023-03-03T06:18:25.903Z,65.00
2023-03-03T06:21:02.341Z,67.10
2023-03-03T06:23:40.424Z,66.53
2023-03-03T06:26:20.535Z,62.70
2023-03-03T06:28:57.469Z,63.80
2023-03-03T06:31:35.323Z,63.23
2023-03-03T06:34:11.693Z,63.57
2023-03-03T06:36:49.415Z,62.47
2023-03-03T06:39:25.804Z,62.33
2023-03-03T06:42:09.724Z,61.37
2023-03-03T06:44:48.021Z,59.23
2023-03-03T06:47:24.593Z,62.57
2023-03-03T06:50:06.821Z,60.27
2023-03-03T06:52:44.733Z,58.40
2023-03-03T06:55:31.287Z,59.60
2023-03-03T06:58:17.059Z,60.50
2023-03-03T07:00:58.960Z,57.27
2023-03-03T07:03:38.050Z,52.37
2023-03-03T07:06:26.107Z,51.83
2023-03-03T07:09:04.302Z,51.57
2023-03-03T07:11:44.001Z,51.23
2023-03-03T07:14:26.033Z,50.67
2023-03-03T07:17:06.717Z,52.43
2023-03-03T07:19:43.619Z,50.27
2023-03-03T07:22:24.164Z,49.37
2023-03-03T07:25:04.832Z,50.27
2023-03-03T07:27:42.536Z,51.50
2023-03-03T07:30:39.335Z,49.87
2023-03-03T07:33:29.356Z,50.93
2023-03-03T07:36:08.609Z,50.73
2023-03-03T07:38:51.935Z,49.07
2023-03-03T07:41:28.707Z,46.97
2023-03-03T07:44:10.271Z,47.00
2023-03-03T07:46:54.451Z,47.17
2023-03-03T07:49:38.172Z,48.53
2023-03-03T07:52:31.018Z,48.07
2023-03-03T07:55:25.079Z,49.90
2023-03-03T07:58:07.740Z,54.13
2023-03-03T08:01:17.324Z,52.70
2023-03-03T08:04:02.978Z,51.43
2023-03-03T08:07:00.724Z,50.57
2023-03-03T08:09:48.330Z,50.93
2023-03-03T08:12:43.582Z,53.97
2023-03-03T08:15:30.420Z,52.40
2023-03-03T08:18:23.310Z,49.73
2023-03-03T08:21:13.986Z,52.00
2023-03-03T08:23:56.367Z,53.40
2023-03-03T08:26:38.132Z,52.07
2023-03-03T08:29:21.171Z,50.97
2023-03-03T08:31:59.571Z,50.63
2023-03-03T08:34:41.240Z,51.60
2023-03-03T08:37:25.213Z,50.77
2023-03-03T08:40:07.808Z,52.03
2023-03-03T08:42:49.074Z,52.20
2023-03-03T08:45:25.523Z,49.67
2023-03-03T08:48:11.197Z,49.33
2023-03-03T08:50:50.252Z,49.23
2023-03-03T08:53:42.314Z,49.10
2023-03-03T08:56:19.695Z,49.07
2023-03-03T08:59:02.546Z,47.90
2023-03-03T09:01:46.567Z,49.00
2023-03-03T09:04:25.482Z,48.13
2023-03-03T09:07:02.098Z,46.90
2023-03-03T09:09:41.696Z,45.57
2023-03-03T09:12:23.271Z,47.80
2023-03-03T09:15:01.223Z,48.70
2023-03-03T09:17:40.283Z,43.67
2023-03-03T09:20:34.183Z,44.33
2023-03-03T09:23:44.274Z,43.43
2023-03-03T09:26:45.688Z,44.03
2023-03-03T09:29:32.322Z,46.97
2023-03-03T09:32:13.966Z,47.87
2023-03-03T09:34:54.502Z,45.43
2023-03-03T09:37:34.691Z,47.40
2023-03-03T09:40:33.980Z,46.23
2023-03-03T09:43:25.535Z,45.43
2023-03-03T09:46:09.433Z,44.73
2023-03-03T09:48:58.251Z,45.50
2023-03-03T09:52:02.969Z,46.30
2023-03-03T09:54:52.429Z,45.63
2023-03-03T09:57:35.216Z,44.53
2023-03-03T10:00:51.228Z,46.27
2023-03-03T10:03:59.577Z,43.97
2023-03-03T10:06:40.017Z,44.97
2023-03-03T10:10:02.992Z,45.70
2023-03-03T10:12:51.014Z,47.23
2023-03-03T10:15:42.844Z,46.17
2023-03-03T10:18:38.865Z,45.77
2023-03-03T10:21:22.705Z,45.17
2023-03-03T10:24:06.857Z,44.43
2023-03-03T10:27:16.032Z,44.03
2023-03-03T10:30:06.733Z,45.37
2023-03-03T10:32:59.619Z,48.73
2023-03-03T10:36:07.863Z,46.20
2023-03-03T10:39:03.391Z,44.83
2023-03-03T10:42:03.338Z,44.67
2023-03-03T10:45:05.724Z,44.83
2023-03-03T10:48:12.163Z,43.90
2023-03-03T10:51:02.466Z,43.83
2023-03-03T10:53:49.925Z,43.90
2023-03-03T10:56:52.143Z,44.40
2023-03-03T10:59:53.427Z,44.13
2023-03-03T11:02:39.145Z,42.03
2023-03-03T11:05:34.754Z,43.23
2023-03-03T11:08:20.813Z,43.83
2023-03-03T11:11:11.916Z,44.00
2023-03-03T11:13:58.621Z,45.33
2023-03-03T11:16:58.911Z,44.23
2023-03-03T11:19:51.915Z,45.23
2023-03-03T11:22:46.865Z,45.10
2023-03-03T11:25:44.261Z,44.93
2023-03-03T11:28:38.746Z,44.00
2023-03-03T11:31:28.743Z,44.77
2023-03-03T11:34:22.686Z,45.30
2023-03-03T11:37:07.891Z,44.23
2023-03-03T11:39:48.593Z,43.53
2023-03-03T11:42:36.993Z,42.70
2023-03-03T11:45:23.658Z,43.13
2023-03-03T11:48:10.744Z,43.53
2023-03-03T11:50:58.222Z,44.03
2023-03-03T11:54:15.847Z,44.13
2023-03-03T11:57:00.063Z,44.73
2023-03-03T12:00:03.472Z,44.87
2023-03-03T12:03:13.518Z,46.83
2023-03-03T12:06:07.674Z,47.53
2023-03-03T12:09:14.946Z,48.63
2023-03-03T12:12:03.481Z,50.27
2023-03-03T12:15:01.786Z,49.77
2023-03-03T12:18:34.926Z,48.93
2023-03-03T12:21:25.744Z,50.60
2023-03-03T12:24:34.347Z,49.50
2023-03-03T12:27:25.775Z,47.37
2023-03-03T12:30:14.984Z,49.27
2023-03-03T12:33:26.398Z,49.23
2023-03-03T12:36:22.668Z,50.13
2023-03-03T12:39:08.422Z,48.43
2023-03-03T12:42:01.087Z,49.80
2023-03-03T12:44:50.637Z,48.53
2023-03-03T12:47:37.805Z,49.70
2023-03-03T12:50:36.949Z,47.43
2023-03-03T12:53:29.419Z,49.43
2023-03-03T12:56:11.465Z,48.27
2023-03-03T12:58:58.476Z,47.53
2023-03-03T13:01:45.682Z,45.80
2023-03-03T13:04:43.741Z,47.07
2023-03-03T13:07:42.728Z,47.03
2023-03-03T13:10:38.233Z,44.37
2023-03-03T13:13:25.241Z,46.10
2023-03-03T13:16:10.128Z,50.63
2023-03-03T13:19:03.384Z,50.60
2023-03-03T13:21:49.380Z,48.73
2023-03-03T13:24:41.676Z,47.87
2023-03-03T13:27:25.856Z,46.47
2023-03-03T13:30:16.937Z,44.87
2023-03-03T13:33:11.633Z,45.33
2023-03-03T13:35:56.748Z,44.37
2023-03-03T13:38:36.596Z,46.33
2023-03-03T13:41:32.562Z,45.53
2023-03-03T13:44:17.474Z,45.30
2023-03-03T13:47:11.751Z,47.03
2023-03-03T13:50:12.219Z,47.27
2023-03-03T13:53:10.478Z,47.03
2023-03-03T13:56:00.144Z,46.63
2023-03-03T13:58:58.488Z,47.80
2023-03-03T14:01:44.206Z,48.73
2023-03-03T14:04:41.868Z,48.57
2023-03-03T14:07:24.053Z,49.43
2023-03-03T14:10:08.696Z,50.03
2023-03-03T14:12:57.820Z,51.93
2023-03-03T14:15:50.683Z,49.53
2023-03-03T14:18:36.349Z,47.97
2023-03-03T14:21:26.462Z,47.63
2023-03-03T14:24:12.739Z,47.50
2023-03-03T14:27:01.515Z,48.23
2023-03-03T14:29:53.011Z,49.87
2023-03-03T14:32:45.077Z,47.93
2023-03-03T14:35:28.949Z,47.13
2023-03-03T14:38:13.927Z,47.90
2023-03-03T14:40:52.676Z,47.23
2023-03-03T14:43:36.813Z,46.60
2023-03-03T14:46:58.551Z,46.90
2023-03-03T14:49:42.564Z,46.87
2023-03-03T14:52:39.792Z,46.50
2023-03-03T14:55:42.127Z,46.77
2023-03-03T14:58:40.770Z,46.10
2023-03-03T15:01:26.028Z,46.27
2023-03-03T15:04:09.964Z,47.27
2023-03-03T15:06:59.965Z,45.03
2023-03-03T15:09:44.002Z,45.63
2023-03-03T15:12:43.003Z,46.00
2023-03-03T15:15:34.024Z,46.83
2023-03-03T15:18:20.479Z,45.67
2023-03-03T15:21:10.047Z,46.70
2023-03-03T15:24:02.287Z,45.07
2023-03-03T15:26:55.810Z,46.23
2023-03-03T15:29:47.059Z,45.57
2023-03-03T15:32:32.192Z,44.63
2023-03-03T15:35:30.194Z,45.37
2023-03-03T15:38:28.845Z,44.40
2023-03-03T15:41:26.456Z,46.33
2023-03-03T15:44:29.143Z,45.00
2023-03-03T15:47:28.928Z,44.47
2023-03-03T15:50:33.187Z,45.83
2023-03-03T15:53:29.248Z,46.00
2023-03-03T15:56:26.348Z,44.63
2023-03-03T15:59:38.589Z,45.90
2023-03-03T16:02:29.590Z,46.77
2023-03-03T16:05:18.598Z,45.37
2023-03-03T16:08:07.600Z,46.57
2023-03-03T16:11:00.117Z,43.50
2023-03-03T16:13:55.245Z,45.13
2023-03-03T16:16:45.895Z,45.73
2023-03-03T16:19:36.269Z,45.03
2023-03-03T16:22:33.161Z,44.90
2023-03-03T16:25:27.718Z,46.93
2023-03-03T16:28:16.107Z,48.53
2023-03-03T16:31:03.917Z,46.47
2023-03-03T16:33:49.576Z,46.90
2023-03-03T16:36:37.737Z,46.27
2023-03-03T16:39:23.932Z,46.77
2023-03-03T16:42:06.517Z,46.47
2023-03-03T16:44:57.477Z,45.43
2023-03-03T16:47:58.561Z,46.80
2023-03-03T16:50:43.661Z,44.70
2023-03-03T16:53:32.552Z,44.47
2023-03-03T16:56:16.534Z,43.60
2023-03-03T16:59:16.040Z,43.90
2023-03-03T17:02:03.602Z,42.13
2023-03-03T17:04:53.706Z,43.73
2023-03-03T17:07:49.186Z,45.03
2023-03-03T17:10:32.925Z,44.07
2023-03-03T17:13:20.975Z,43.73
2023-03-03T17:16:10.120Z,42.83
2023-03-03T17:19:06.753Z,43.47
2023-03-03T17:22:02.930Z,45.47
2023-03-03T17:24:53.779Z,45.53
2023-03-03T17:27:40.173Z,45.70
2023-03-03T17:30:26.070Z,45.43
2023-03-03T17:33:23.055Z,46.17
2023-03-03T17:36:21.860Z,48.30
2023-03-03T17:39:12.129Z,46.60
2023-03-03T17:41:57.015Z,47.20
2023-03-03T17:44:43.108Z,48.53
2023-03-03T17:47:26.021Z,48.33
2023-03-03T17:50:19.010Z,47.33
2023-03-03T17:53:11.390Z,47.30
2023-03-03T17:56:13.472Z,48.00
2023-03-03T17:59:22.001Z,47.63
2023-03-03T18:02:15.988Z,46.70
2023-03-03T18:05:12.446Z,46.83
2023-03-03T18:07:58.420Z,46.90
2023-03-03T18:11:10.094Z,45.77
2023-03-03T18:14:11.716Z,46.50
2023-03-03T18:17:07.633Z,46.00
2023-03-03T18:20:06.217Z,44.63
2023-03-03T18:22:50.430Z,45.13
2023-03-03T18:25:28.994Z,44.77
2023-03-03T18:28:28.253Z,43.63
2023-03-03T18:31:31.885Z,43.00
2023-03-03T18:34:13.451Z,43.87
2023-03-03T18:37:00.301Z,42.60
2023-03-03T18:39:47.702Z,42.40
2023-03-03T18:42:42.598Z,41.07
2023-03-03T18:45:57.142Z,41.40
2023-03-03T18:49:06.433Z,40.53
2023-03-03T18:52:22.901Z,40.47
2023-03-03T18:55:29.666Z,39.90
2023-03-03T18:58:35.774Z,40.57
2023-03-03T19:01:43.386Z,40.43
2023-03-03T19:04:28.856Z,39.47
2023-03-03T19:07:28.484Z,40.27
2023-03-03T19:10:05.696Z,39.70
2023-03-03T19:12:53.256Z,39.73
2023-03-03T19:15:50.989Z,40.93
2023-03-03T19:18:28.540Z,40.50
2023-03-03T19:21:08.708Z,40.97
2023-03-03T19:24:01.465Z,39.90
2023-03-03T19:27:16.410Z,39.93
2023-03-03T19:30:30.851Z,40.73
2023-03-03T19:33:37.535Z,40.90
2023-03-03T19:36:38.976Z,40.73
2023-03-03T19:39:46.118Z,41.47
2023-03-03T19:42:33.653Z,40.40
2023-03-03T19:45:32.252Z,41.80
2023-03-03T19:48:14.001Z,41.90
2023-03-03T19:50:56.134Z,40.77
2023-03-03T19:53:39.474Z,41.97
2023-03-03T19:56:40.676Z,41.40
2023-03-03T19:59:27.539Z,41.53
2023-03-03T20:02:24.433Z,41.97
2023-03-03T20:05:11.833Z,42.40
2023-03-03T20:07:55.022Z,41.10
2023-03-03T20:10:48.993Z,41.13
2023-03-03T20:13:38.650Z,42.83
2023-03-03T20:16:28.037Z,41.40
2023-03-03T20:19:26.843Z,41.83
2023-03-03T20:22:12.976Z,42.37
2023-03-03T20:25:03.726Z,43.77
2023-03-03T20:27:48.762Z,42.73
2023-03-03T20:30:32.284Z,43.83
2023-03-03T20:33:20.942Z,41.70
2023-03-03T20:36:06.523Z,43.07
2023-03-03T20:38:49.674Z,42.77
2023-03-03T20:41:34.441Z,42.53
2023-03-03T20:44:25.287Z,43.03
2023-03-03T20:47:06.348Z,43.10
2023-03-03T20:50:16.642Z,42.97
2023-03-03T20:53:07.544Z,42.10
2023-03-03T20:55:52.504Z,42.80
2023-03-03T20:58:36.564Z,40.90
2023-03-03T21:01:16.830Z,40.77
2023-03-03T21:03:51.220Z,39.20
2023-03-03T21:06:27.905Z,40.50
2023-03-03T21:09:04.175Z,39.77
2023-03-03T21:11:48.322Z,40.13
2023-03-03T21:14:26.221Z,39.03
2023-03-03T21:17:04.228Z,40.53
2023-03-03T21:19:40.429Z,40.67
2023-03-03T21:22:15.672Z,40.97
2023-03-03T21:24:54.710Z,40.67
2023-03-03T21:27:34.081Z,40.63
2023-03-03T21:30:10.175Z,40.90
2023-03-03T21:32:49.630Z,40.23
2023-03-03T21:35:25.114Z,41.33
2023-03-03T21:38:01.924Z,40.57
2023-03-03T21:40:37.512Z,40.80
2023-03-03T21:43:11.931Z,41.87
2023-03-03T21:45:48.089Z,41.83
2023-03-03T21:48:24.934Z,41.80
2023-03-03T21:51:00.560Z,41.90
2023-03-03T21:53:34.441Z,41.40
2023-03-03T21:56:08.906Z,42.80
2023-03-03T21:58:43.108Z,43.83
2023-03-03T22:01:17.989Z,43.53
2023-03-03T22:03:54.164Z,42.07
2023-03-03T22:06:29.414Z,41.73
2023-03-03T22:09:04.948Z,42.13
2023-03-03T22:11:39.824Z,42.90
2023-03-03T22:14:15.077Z,44.13
2023-03-03T22:16:50.377Z,43.80
2023-03-03T22:19:28.587Z,43.47
2023-03-03T22:22:04.004Z,43.30
2023-03-03T22:24:38.560Z,43.73
2023-03-03T22:27:13.450Z,43.70
2023-03-03T22:29:48.400Z,43.27
2023-03-03T22:32:24.173Z,42.53
2023-03-03T22:35:02.419Z,43.77
2023-03-03T22:37:38.245Z,43.30
2023-03-03T22:40:15.199Z,43.93
2023-03-03T22:42:51.125Z,43.97
2023-03-03T22:45:26.801Z,43.70
2023-03-03T22:48:02.040Z,45.00
2023-03-03T22:50:42.267Z,44.17
2023-03-03T22:53:18.535Z,43.87
2023-03-03T22:55:54.947Z,44.77
2023-03-03T22:58:30.689Z,43.33
2023-03-03T23:01:08.508Z,44.70
2023-03-03T23:03:44.576Z,43.00
2023-03-03T23:06:22.575Z,43.07
2023-03-03T23:08:58.289Z,42.93
2023-03-03T23:11:34.010Z,43.57
2023-03-03T23:14:10.048Z,42.83
2023-03-03T23:16:47.169Z,41.83
2023-03-03T23:19:22.622Z,42.40
2023-03-03T23:22:01.037Z,43.77
2023-03-03T23:24:37.399Z,43.90
2023-03-03T23:27:13.905Z,41.90
2023-03-03T23:29:49.222Z,43.27
2023-03-03T23:32:26.108Z,43.23
2023-03-03T23:35:02.011Z,44.03
2023-03-03T23:37:40.039Z,45.03
2023-03-03T23:40:17.410Z,45.53
2023-03-03T23:42:53.572Z,45.53
2023-03-03T23:45:29.656Z,44.70
2023-03-03T23:48:05.542Z,46.43
2023-03-03T23:50:41.792Z,47.67
2023-03-03T23:53:20.914Z,48.17
2023-03-03T23:55:56.865Z,48.67
2023-03-03T23:58:32.444Z,48.20
